Time;durP1;ratioP1;P1;durP2;ratioP2;P2;SDS_P1;SDS_P2;PMS_P1;PMS_P2;Temp;Humidity;BMP_temperature;BMP_pressure;BME280_temperature;BME280_humidity;BME280_pressure;Samples;Min_cycle;Max_cycle;Signal;HPM_P1;HPM_P2
2022/06/20 00:00:13;;;;;;;0.85;0.82;;;;;;;12.69;92.60;101448.34;5016365;28;20426;-75
2022/06/20 00:02:51;;;;;;;2.50;0.90;;;;;;;12.66;92.77;101444.00;5018295;28;21526;-74
2022/06/20 00:05:21;;;;;;;1.38;0.90;;;;;;;12.63;92.82;101450.31;5014015;28;20455;-75
2022/06/20 00:07:47;;;;;;;1.15;0.85;;;;;;;12.63;92.97;101452.97;5017939;28;20025;-75
2022/06/20 00:10:14;;;;;;;2.08;0.90;;;;;;;12.62;92.80;101437.97;5032551;28;20846;-76
2022/06/20 00:12:42;;;;;;;3.38;1.15;;;;;;;12.61;92.40;101433.59;5032699;28;20053;-75
2022/06/20 00:15:10;;;;;;;0.82;0.70;;;;;;;12.59;92.44;101434.59;5015688;28;20058;-75
2022/06/20 00:17:36;;;;;;;3.55;0.98;;;;;;;12.56;92.68;101435.59;5013168;28;20565;-75
2022/06/20 00:20:02;;;;;;;3.08;1.20;;;;;;;12.53;93.07;101433.06;5032454;28;20033;-75
2022/06/20 00:22:28;;;;;;;5.68;0.95;;;;;;;12.52;92.96;101433.16;5016157;28;20075;-75
2022/06/20 00:24:53;;;;;;;2.20;1.02;;;;;;;12.49;92.97;101436.78;5017267;28;21432;-75
2022/06/20 00:27:19;;;;;;;1.35;0.80;;;;;;;12.46;92.87;101420.97;4998645;28;20037;-74
2022/06/20 00:29:45;;;;;;;2.70;1.27;;;;;;;12.42;92.93;101404.31;5016880;28;20047;-75
2022/06/20 00:32:11;;;;;;;4.13;0.93;;;;;;;12.39;92.99;101396.50;5000270;28;20031;-76
2022/06/20 00:34:37;;;;;;;0.98;0.88;;;;;;;12.38;92.89;101415.16;5015017;28;20583;-75
2022/06/20 00:37:04;;;;;;;2.45;1.10;;;;;;;12.36;93.17;101429.38;5019462;28;20083;-75
2022/06/20 00:39:30;;;;;;;2.13;1.00;;;;;;;12.35;92.98;101438.25;5032679;28;20515;-75
2022/06/20 00:41:55;;;;;;;2.78;1.00;;;;;;;12.34;93.18;101425.03;5016632;28;20167;-75
2022/06/20 00:44:31;;;;;;;2.00;0.95;;;;;;;12.32;93.08;101442.84;5030393;28;20034;-75
2022/06/20 00:47:01;;;;;;;2.20;1.00;;;;;;;12.29;93.22;101443.84;5031400;28;20026;-75
2022/06/20 00:49:30;;;;;;;1.67;0.98;;;;;;;12.29;93.16;101437.66;5030703;28;20119;-75
2022/06/20 00:52:13;;;;;;;2.17;0.80;;;;;;;12.27;93.35;101435.09;5018576;28;20045;-75
2022/06/20 00:55:06;;;;;;;1.58;1.00;;;;;;;12.25;93.29;101431.63;5012867;28;20041;-76
2022/06/20 00:57:38;;;;;;;1.90;0.82;;;;;;;12.21;93.21;101444.16;5012804;28;20106;-76
2022/06/20 01:00:09;;;;;;;0.98;0.85;;;;;;;12.19;93.30;101442.50;5013412;28;20041;-76
2022/06/20 01:02:38;;;;;;;1.13;1.05;;;;;;;12.16;93.18;101440.81;5018200;28;20025;-76
2022/06/20 01:05:08;;;;;;;1.70;0.80;;;;;;;12.13;93.17;101434.78;5019567;28;20033;-76
2022/06/20 01:08:03;;;;;;;3.28;1.10;;;;;;;12.11;93.35;101441.97;5015086;28;20033;-75
2022/06/20 01:10:35;;;;;;;5.18;0.98;;;;;;;12.07;93.10;101442.09;4994935;28;20045;-75
2022/06/20 01:13:04;;;;;;;2.60;1.00;;;;;;;12.05;93.05;101451.06;5024709;28;20667;-75
2022/06/20 01:15:38;;;;;;;1.27;0.90;;;;;;;12.05;93.10;101449.25;5012030;28;20037;-75
2022/06/20 01:18:05;;;;;;;5.43;1.30;;;;;;;12.03;93.38;101469.69;4995325;28;20037;-74
2022/06/20 01:20:34;;;;;;;1.05;0.80;;;;;;;12.04;93.25;101466.09;4996223;28;20037;-75
2022/06/20 01:23:06;;;;;;;2.75;1.05;;;;;;;12.04;93.15;101460.78;5028193;28;20062;-75
2022/06/20 01:25:54;;;;;;;3.38;1.10;;;;;;;12.03;93.53;101467.03;5000420;28;20029;-75
2022/06/20 01:28:23;;;;;;;1.50;0.85;;;;;;;12.02;93.45;101461.75;5014789;28;20339;-75
2022/06/20 01:30:48;;;;;;;2.75;0.93;;;;;;;11.98;93.32;101466.31;5010657;28;20627;-74
2022/06/20 01:33:17;;;;;;;3.28;1.13;;;;;;;11.92;93.08;101470.09;5014022;28;20119;-74
2022/06/20 01:38:29;;;;;;;0.70;0.70;;;;;;;11.86;93.54;101480.09;5027850;28;20037;-75
2022/06/20 01:43:40;;;;;;;2.47;1.20;;;;;;;11.80;93.66;101479.44;5016753;28;20041;-74
2022/06/20 01:46:09;;;;;;;1.20;1.10;;;;;;;11.77;93.71;101490.16;5019726;28;20030;-74
2022/06/20 01:48:44;;;;;;;1.20;1.00;;;;;;;11.74;93.79;101474.38;5031801;28;20068;-74
2022/06/20 01:51:20;;;;;;;2.60;0.98;;;;;;;11.71;94.23;101461.22;5010891;28;20090;-74
2022/06/20 01:53:47;;;;;;;2.60;1.10;;;;;;;11.66;94.04;101455.25;5013375;28;20026;-74
2022/06/20 01:56:13;;;;;;;2.15;1.02;;;;;;;11.62;94.48;101448.34;5011442;28;20045;-74
2022/06/20 01:58:42;;;;;;;1.13;1.02;;;;;;;11.61;94.45;101462.53;5011619;28;20029;-74
2022/06/20 02:01:08;;;;;;;1.67;1.10;;;;;;;11.58;94.72;101452.03;5012511;28;20057;-75
2022/06/20 02:03:36;;;;;;;4.50;1.05;;;;;;;11.54;94.56;101456.59;5031709;28;20173;-74
2022/06/20 02:06:03;;;;;;;1.92;1.13;;;;;;;11.52;94.52;101459.31;5013748;28;20554;-74
2022/06/20 02:08:29;;;;;;;2.00;1.02;;;;;;;11.48;94.43;101460.34;5017680;28;21457;-74
2022/06/20 02:11:08;;;;;;;2.35;1.10;;;;;;;11.46;94.95;101456.91;5013592;28;20049;-74
2022/06/20 02:13:38;;;;;;;1.13;1.00;;;;;;;11.44;95.02;101472.00;5028698;28;20489;-74
2022/06/20 02:16:07;;;;;;;4.93;1.30;;;;;;;11.42;94.91;101463.25;5015922;28;20531;-74
2022/06/20 02:18:36;;;;;;;3.72;1.27;;;;;;;11.38;94.97;101472.22;4995120;28;20041;-73
2022/06/20 02:21:05;;;;;;;3.88;1.38;;;;;;;11.37;94.71;101476.69;5015427;28;20033;-75
2022/06/20 02:23:33;;;;;;;3.17;1.25;;;;;;;11.34;95.17;101482.09;5031394;28;20029;-74
2022/06/20 02:26:00;;;;;;;7.57;1.70;;;;;;;11.31;95.04;101491.94;5012648;28;20695;-74
2022/06/20 02:28:31;;;;;;;1.98;1.20;;;;;;;11.28;95.50;101490.31;5028521;28;21462;-74
2022/06/20 02:30:57;;;;;;;3.08;1.50;;;;;;;11.25;95.73;101499.25;5013840;28;20075;-75
2022/06/20 02:33:25;;;;;;;4.18;1.25;;;;;;;11.22;96.21;101498.50;4998245;28;20076;-74
2022/06/20 02:35:54;;;;;;;3.90;1.20;;;;;;;11.19;96.48;101503.91;5029722;28;20045;-74
2022/06/20 02:38:21;;;;;;;4.45;1.40;;;;;;;11.17;96.34;101503.09;5010934;28;20483;-75
2022/06/20 02:40:48;;;;;;;2.75;1.40;;;;;;;11.14;96.81;101507.59;5016596;28;20029;-74
2022/06/20 02:43:18;;;;;;;4.43;1.45;;;;;;;11.13;97.13;101500.53;5012857;28;20051;-74
2022/06/20 02:45:45;;;;;;;2.80;1.38;;;;;;;11.11;97.40;101491.78;4995592;28;20500;-75
2022/06/20 02:48:12;;;;;;;5.70;1.65;;;;;;;11.11;97.49;101481.19;5018056;28;20022;-75
2022/06/20 02:50:41;;;;;;;2.50;1.35;;;;;;;11.13;96.99;101473.19;5032945;28;20057;-75
2022/06/20 02:53:12;;;;;;;3.53;1.30;;;;;;;11.13;97.01;101467.91;4984041;28;21564;-75
2022/06/20 02:55:38;;;;;;;1.98;1.30;;;;;;;11.13;97.20;101458.13;5031907;28;20029;-75
2022/06/20 02:58:07;;;;;;;2.95;1.73;;;;;;;11.11;97.14;101459.16;5015981;28;20030;-73
2022/06/20 03:00:36;;;;;;;3.88;1.80;;;;;;;11.10;97.29;101454.75;5013554;28;20434;-74
2022/06/20 03:03:09;;;;;;;5.05;1.80;;;;;;;11.11;96.92;101456.50;5016482;28;20568;-74
2022/06/20 03:05:36;;;;;;;2.45;1.70;;;;;;;11.09;97.22;101442.41;5028853;28;20040;-74
2022/06/20 03:08:02;;;;;;;2.20;1.85;;;;;;;11.06;96.96;101454.00;5014226;28;20115;-74
2022/06/20 03:10:28;;;;;;;4.00;1.48;;;;;;;11.05;96.81;101438.19;5032151;28;20385;-74
2022/06/20 03:12:54;;;;;;;2.42;1.50;;;;;;;11.02;96.85;101443.56;5034180;28;20034;-74
2022/06/20 03:15:20;;;;;;;1.35;1.20;;;;;;;10.98;97.45;101441.06;5000098;28;20080;-74
2022/06/20 03:17:47;;;;;;;3.67;1.90;;;;;;;10.97;97.18;101447.28;5000639;28;20207;-74
2022/06/20 03:20:15;;;;;;;5.20;1.60;;;;;;;10.95;97.84;101450.91;5035161;28;20030;-74
2022/06/20 03:22:49;;;;;;;5.65;1.95;;;;;;;10.94;97.68;101449.16;5005742;28;20973;-75
2022/06/20 03:25:15;;;;;;;4.15;1.77;;;;;;;10.91;97.53;101452.81;5011476;28;20029;-74
2022/06/20 03:27:42;;;;;;;3.80;2.20;;;;;;;10.91;97.62;101452.81;5037924;28;20069;-74
2022/06/20 03:30:24;;;;;;;5.25;1.90;;;;;;;10.89;98.02;101461.72;5021922;28;20029;-74
2022/06/20 03:32:49;;;;;;;3.55;1.70;;;;;;;10.86;97.85;101446.81;5027838;28;20044;-74
2022/06/20 03:35:15;;;;;;;3.58;1.75;;;;;;;10.83;97.60;101447.78;5022996;28;20041;-74
2022/06/20 03:37:41;;;;;;;3.35;2.03;;;;;;;10.83;97.60;101438.97;5043016;28;20048;-75
2022/06/20 03:40:07;;;;;;;3.40;1.63;;;;;;;10.79;97.58;101440.00;5028340;28;20033;-74
2022/06/20 03:42:33;;;;;;;3.03;1.95;;;;;;;10.76;97.99;101442.75;5021635;28;20036;-74
2022/06/20 03:45:02;;;;;;;4.50;1.90;;;;;;;10.74;98.01;101440.19;5025541;28;20037;-74
2022/06/20 03:47:35;;;;;;;5.18;1.98;;;;;;;10.72;98.74;101440.22;5028657;28;20041;-74
2022/06/20 03:50:09;;;;;;;3.50;2.30;;;;;;;10.70;98.62;101439.44;5014505;28;20558;-75
2022/06/20 03:52:39;;;;;;;4.78;2.30;;;;;;;10.70;98.62;101444.72;5027872;28;20021;-75
2022/06/20 03:55:11;;;;;;;3.55;2.20;;;;;;;10.70;98.83;101442.09;5027795;28;20048;-74
2022/06/20 03:58:03;;;;;;;2.53;1.60;;;;;;;10.71;99.68;101427.91;5010825;28;20042;-74
2022/06/20 04:00:35;;;;;;;4.40;2.20;;;;;;;10.75;99.29;101435.72;5010261;28;20343;-75
2022/06/20 04:03:10;;;;;;;4.83;2.20;;;;;;;10.77;98.96;101449.78;5027931;28;20232;-74
2022/06/20 04:05:44;;;;;;;6.30;2.33;;;;;;;10.78;98.83;101441.78;4994502;28;20505;-74
2022/06/20 04:08:23;;;;;;;5.40;2.67;;;;;;;10.80;99.33;101442.63;5008231;28;20056;-74
2022/06/20 04:10:58;;;;;;;5.53;2.17;;;;;;;10.83;99.42;101445.13;5015274;28;20076;-75
2022/06/20 04:13:30;;;;;;;6.65;2.60;;;;;;;10.86;99.24;101444.16;5012461;28;20116;-75
2022/06/20 04:16:00;;;;;;;3.75;1.90;;;;;;;10.88;99.50;101441.47;5009903;28;20053;-75
2022/06/20 04:18:31;;;;;;;3.50;2.17;;;;;;;10.90;98.92;101448.41;5010506;28;20499;-75
2022/06/20 04:21:02;;;;;;;6.35;2.17;;;;;;;10.92;98.72;101441.28;5012194;28;20745;-75
2022/06/20 04:23:35;;;;;;;4.65;2.42;;;;;;;10.95;98.88;101429.72;5012654;28;21581;-74
2022/06/20 04:26:09;;;;;;;5.50;2.03;;;;;;;10.96;98.82;101434.94;5011480;28;20073;-74
2022/06/20 04:28:39;;;;;;;4.95;1.80;;;;;;;10.98;99.22;101438.41;5015356;28;20068;-74
2022/06/20 04:31:05;;;;;;;3.58;1.83;;;;;;;11.02;99.09;101430.31;5010094;28;20036;-74
2022/06/20 04:33:39;;;;;;;4.57;2.13;;;;;;;11.04;98.96;101424.06;5027341;28;20025;-74
2022/06/20 04:36:05;;;;;;;3.75;1.75;;;;;;;11.08;98.92;101423.03;4995421;28;20484;-74
2022/06/20 04:38:41;;;;;;;4.28;2.20;;;;;;;11.13;99.02;101417.53;5011858;28;20034;-74
2022/06/20 04:41:38;;;;;;;3.40;2.00;;;;;;;11.17;99.32;101416.47;5009867;28;20543;-74
2022/06/20 04:44:30;;;;;;;5.07;2.10;;;;;;;11.21;98.64;101412.81;4982769;28;20045;-74
2022/06/20 04:47:17;;;;;;;4.80;2.20;;;;;;;11.31;98.99;101409.78;4997646;28;20053;-74
2022/06/20 04:49:43;;;;;;;5.43;2.50;;;;;;;11.39;99.08;101403.25;5011363;28;20048;-73
2022/06/20 04:52:12;;;;;;;4.43;2.30;;;;;;;11.49;98.90;101418.81;5011286;28;20025;-74
2022/06/20 04:54:38;;;;;;;5.72;2.03;;;;;;;11.57;98.53;101405.22;5009283;28;20599;-74
2022/06/20 04:57:04;;;;;;;8.05;2.40;;;;;;;11.65;98.63;101406.66;5004378;28;20048;-74
2022/06/20 04:59:31;;;;;;;6.43;2.03;;;;;;;11.76;98.63;101406.19;5009497;28;20108;-74
2022/06/20 05:01:58;;;;;;;4.50;2.45;;;;;;;11.87;97.97;101410.22;5024072;28;20074;-74
2022/06/20 05:04:29;;;;;;;5.10;2.10;;;;;;;12.01;97.58;101418.44;5009658;28;20480;-74
2022/06/20 05:06:56;;;;;;;5.13;2.53;;;;;;;12.17;97.46;101420.47;5026267;28;20121;-74
2022/06/20 05:09:28;;;;;;;9.63;2.60;;;;;;;12.29;96.95;101430.56;5014362;28;20042;-74
2022/06/20 05:12:21;;;;;;;5.07;2.50;;;;;;;12.41;96.92;101430.97;4995104;28;20150;-74
2022/06/20 05:14:51;;;;;;;4.78;2.00;;;;;;;12.50;96.60;101428.75;4997070;28;20050;-74
2022/06/20 05:17:21;;;;;;;6.57;2.25;;;;;;;12.62;96.10;101431.78;5011684;28;20044;-75
2022/06/20 05:19:52;;;;;;;4.80;2.22;;;;;;;12.77;96.39;101443.53;4991146;28;20028;-74
2022/06/20 05:22:22;;;;;;;5.40;2.30;;;;;;;12.98;95.91;101443.47;5008906;28;20053;-74
2022/06/20 05:24:49;;;;;;;6.25;1.80;;;;;;;13.20;94.98;101445.13;5008639;28;21110;-75
2022/06/20 05:27:25;;;;;;;8.75;2.33;;;;;;;13.40;95.00;101441.53;5009225;28;20800;-74
2022/06/20 05:29:52;;;;;;;5.13;1.88;;;;;;;13.58;94.34;101442.47;5026092;28;20673;-75
2022/06/20 05:32:30;;;;;;;5.55;2.35;;;;;;;13.77;94.38;101447.75;4993077;28;20024;-75
2022/06/20 05:35:02;;;;;;;7.72;2.80;;;;;;;13.94;93.90;101452.25;4979693;28;21620;-74
2022/06/20 05:37:48;;;;;;;5.63;2.20;;;;;;;14.07;92.55;101440.97;5014286;28;20056;-75
2022/06/20 05:40:26;;;;;;;10.35;2.13;;;;;;;14.19;92.86;101445.69;5010740;28;20129;-75
2022/06/20 05:42:51;;;;;;;6.53;2.38;;;;;;;14.34;92.98;101441.34;5013264;28;20096;-75
2022/06/20 05:45:19;;;;;;;3.17;2.00;;;;;;;14.53;92.42;101443.06;5010737;28;20203;-75
2022/06/20 05:47:53;;;;;;;5.40;2.05;;;;;;;14.73;92.25;101444.69;5014240;28;20021;-76
2022/06/20 05:50:34;;;;;;;4.43;1.80;;;;;;;14.90;90.93;101449.13;5025028;28;20036;-75
2022/06/20 05:53:01;;;;;;;3.03;1.60;;;;;;;15.04;90.76;101448.34;5010218;28;20103;-75
2022/06/20 05:55:33;;;;;;;2.17;1.73;;;;;;;15.22;90.45;101450.97;4993773;28;20061;-75
2022/06/20 05:57:59;;;;;;;3.90;1.80;;;;;;;15.42;89.31;101457.00;5008498;28;20033;-75
2022/06/20 06:00:27;;;;;;;3.88;2.13;;;;;;;15.56;88.43;101464.19;5025052;28;20551;-75
2022/06/20 06:03:04;;;;;;;6.88;1.55;;;;;;;15.70;87.51;101464.28;5010512;28;20029;-75
2022/06/20 06:05:39;;;;;;;1.90;1.30;;;;;;;15.85;85.24;101470.53;5013484;28;20404;-75
2022/06/20 06:08:20;;;;;;;2.90;1.70;;;;;;;15.97;85.49;101462.81;4997317;28;20033;-75
2022/06/20 06:10:53;;;;;;;3.92;1.80;;;;;;;16.11;85.13;101468.19;5009979;28;20045;-75
2022/06/20 06:13:23;;;;;;;;;;;;;;;16.31;83.58;101463.47;5010905;28;20696;-75
2022/06/20 06:18:57;;;;;;;5.25;1.60;;;;;;;16.66;83.94;101478.31;4995304;28;21347;-75
2022/06/20 06:21:23;;;;;;;7.10;1.77;;;;;;;16.83;83.27;101482.63;5010267;28;20551;-75
2022/06/20 06:23:49;;;;;;;5.15;1.48;;;;;;;16.90;81.58;101483.97;5024373;28;20645;-77
2022/06/20 06:26:16;;;;;;;4.13;1.60;;;;;;;16.99;79.99;101492.38;5007765;28;20122;-75
2022/06/20 06:28:42;;;;;;;2.40;1.45;;;;;;;17.15;81.44;101485.13;5010278;28;20041;-74
2022/06/20 06:31:40;;;;;;;4.50;1.67;;;;;;;17.35;78.97;101483.00;5008398;28;20555;-75
2022/06/20 06:34:19;;;;;;;3.63;1.50;;;;;;;17.47;78.93;101482.22;5004898;28;20056;-76
2022/06/20 06:36:49;;;;;;;4.10;1.38;;;;;;;17.56;78.55;101479.91;5024789;28;20297;-75
2022/06/20 06:39:20;;;;;;;6.75;1.55;;;;;;;17.51;77.66;101489.09;5008193;28;20065;-74
2022/06/20 06:41:48;;;;;;;3.88;1.98;;;;;;;17.53;78.08;101480.09;5008000;28;20029;-75
2022/06/20 06:44:37;;;;;;;3.58;1.30;;;;;;;17.56;76.70;101485.25;4995719;28;20042;-76
2022/06/20 06:47:03;;;;;;;3.90;1.27;;;;;;;17.42;76.52;101486.16;5009308;28;20053;-75
2022/06/20 06:49:39;;;;;;;2.95;1.58;;;;;;;17.47;78.20;101484.03;4996884;28;20041;-75
2022/06/20 06:52:25;;;;;;;3.40;1.13;;;;;;;17.68;75.56;101489.81;5009436;28;20648;-74
2022/06/20 06:54:56;;;;;;;4.15;1.50;;;;;;;17.78;76.14;101495.41;5014182;28;20388;-75
2022/06/20 06:57:21;;;;;;;6.20;1.55;;;;;;;17.63;76.67;101490.13;5009387;28;20041;-75
2022/06/20 07:00:05;;;;;;;3.20;1.63;;;;;;;17.53;75.44;101494.34;5012698;28;20040;-75
2022/06/20 07:02:40;;;;;;;3.72;1.20;;;;;;;17.59;77.16;101485.91;5013066;28;20112;-77
2022/06/20 07:05:11;;;;;;;3.25;1.75;;;;;;;17.64;75.42;101491.81;4981451;28;20030;-77
2022/06/20 07:07:46;;;;;;;2.73;1.20;;;;;;;17.57;73.32;101497.66;5013266;28;20688;-77
2022/06/20 07:10:18;;;;;;;2.13;1.10;;;;;;;17.57;73.30;101497.66;5028270;28;20315;-78
2022/06/20 07:12:48;;;;;;;3.17;1.08;;;;;;;17.63;72.95;101492.78;5014572;28;20108;-80
2022/06/20 07:15:16;;;;;;;1.73;0.93;;;;;;;17.84;73.04;101507.53;4978681;28;20752;-81
2022/06/20 07:17:55;;;;;;;2.03;0.85;;;;;;;17.95;71.79;101505.00;5013502;28;20033;-78
2022/06/20 07:20:24;;;;;;;4.93;1.27;;;;;;;18.04;71.67;101509.75;5009097;28;20079;-77
2022/06/20 07:22:50;;;;;;;1.98;0.77;;;;;;;18.21;71.31;101513.16;5010670;28;20033;-80
2022/06/20 07:25:35;;;;;;;3.78;1.10;;;;;;;18.29;69.68;101518.84;4996305;28;20482;-78
2022/06/20 07:28:34;;;;;;;1.17;0.90;;;;;;;18.40;69.77;101517.25;5015270;28;20435;-78
2022/06/20 07:31:28;;;;;;;1.77;1.00;;;;;;;18.65;67.61;101511.09;5012824;28;20124;-79
2022/06/20 07:34:14;;;;;;;1.33;0.90;;;;;;;18.69;66.58;101520.63;5026982;28;20053;-80
2022/06/20 07:36:50;;;;;;;2.15;0.90;;;;;;;18.62;66.50;101518.47;5015204;28;20022;-79
2022/06/20 07:39:38;;;;;;;3.97;1.10;;;;;;;18.57;68.25;101503.56;5011885;28;20052;-80
2022/06/20 07:42:11;;;;;;;2.45;1.20;;;;;;;18.69;67.72;101506.38;5026470;28;20128;-82
2022/06/20 07:44:52;;;;;;;1.15;0.70;;;;;;;18.79;67.52;101504.75;5010178;28;20037;-79
2022/06/20 07:47:24;;;;;;;2.42;1.00;;;;;;;18.84;68.08;101499.91;5009177;28;20026;-78
2022/06/20 07:50:04;;;;;;;2.38;0.75;;;;;;;18.89;68.12;101509.47;5024914;28;20034;-79
2022/06/20 07:52:38;;;;;;;1.23;0.80;;;;;;;18.93;68.42;101508.28;5010384;28;20041;-78
2022/06/20 07:55:09;;;;;;;1.73;1.00;;;;;;;18.98;65.48;101520.41;5009200;28;20108;-76
2022/06/20 07:57:39;;;;;;;1.75;0.98;;;;;;;18.94;64.70;101515.34;5006957;28;20048;-78
2022/06/20 08:00:06;;;;;;;2.55;1.00;;;;;;;18.82;64.09;101523.31;5011587;28;20063;-79
2022/06/20 08:02:34;;;;;;;2.42;1.17;;;;;;;18.75;65.51;101513.13;5008992;28;20032;-75
2022/06/20 08:05:01;;;;;;;2.17;0.80;;;;;;;18.77;65.93;101514.72;5012235;28;20034;-82
2022/06/20 08:07:44;;;;;;;1.45;0.95;;;;;;;18.91;65.02;101518.25;5010560;28;20048;-81
2022/06/20 08:10:18;;;;;;;1.27;1.00;;;;;;;19.10;63.50;101512.47;5010949;28;20175;-78
2022/06/20 08:12:47;;;;;;;2.10;1.13;;;;;;;19.14;64.57;101511.31;5026011;28;20111;-78
2022/06/20 08:15:28;;;;;;;2.33;0.80;;;;;;;19.17;64.31;101516.44;5007459;28;20792;-79
2022/06/20 08:17:54;;;;;;;2.38;0.90;;;;;;;19.36;63.65;101523.16;5014859;28;20033;-83
2022/06/20 08:20:21;;;;;;;5.55;1.20;;;;;;;19.46;64.31;101524.22;4998314;28;20036;-86
2022/06/20 08:22:56;;;;;;;2.33;0.98;;;;;;;19.53;62.53;101524.63;5010937;28;20633;-85
2022/06/20 08:25:43;;;;;;;4.32;1.00;;;;;;;19.75;62.37;101536.47;5013814;28;20040;-89
2022/06/20 08:28:18;;;;;;;1.60;1.02;;;;;;;19.83;62.10;101539.44;5025645;28;20763;-80
2022/06/20 08:30:47;;;;;;;1.08;0.80;;;;;;;19.90;61.85;101537.19;4995688;28;20120;-80
2022/06/20 08:33:20;;;;;;;1.10;0.90;;;;;;;19.84;60.32;101549.25;5014709;28;20033;-86
2022/06/20 08:36:01;;;;;;;1.85;0.90;;;;;;;19.88;62.38;101539.97;4993754;28;20772;-86
2022/06/20 08:38:42;;;;;;;1.83;0.83;;;;;;;19.91;62.14;101542.44;5010352;28;20028;-84
2022/06/20 08:41:28;;;;;;;1.90;1.05;;;;;;;19.65;59.58;101539.84;4997744;28;20037;-79
2022/06/20 08:44:04;;;;;;;4.18;1.20;;;;;;;19.30;62.11;101547.78;5015117;28;20039;-81
2022/06/20 08:46:33;;;;;;;2.55;1.10;;;;;;;18.99;64.18;101551.63;5006843;28;20157;-76
2022/06/20 08:49:04;;;;;;;1.35;1.00;;;;;;;18.80;64.97;101554.72;5010823;28;20036;-80
2022/06/20 08:52:06;;;;;;;3.53;0.95;;;;;;;18.79;64.30;101563.75;5012458;28;20029;-77
2022/06/20 08:54:58;;;;;;;1.55;1.00;;;;;;;18.97;63.89;101555.41;5004431;28;20103;-79
2022/06/20 08:58:06;;;;;;;1.77;0.93;;;;;;;19.17;63.38;101554.00;4998726;28;20503;-81
2022/06/20 09:00:46;;;;;;;2.80;0.98;;;;;;;19.17;64.79;101562.06;5008095;28;20431;-75
2022/06/20 09:03:20;;;;;;;1.23;0.80;;;;;;;18.98;64.22;101559.78;5008088;28;20042;-74
2022/06/20 09:06:24;;;;;;;1.77;0.80;;;;;;;18.97;64.56;101566.13;5005816;28;20787;-74
2022/06/20 09:09:09;;;;;;;3.65;1.00;;;;;;;18.87;63.99;101561.38;5008150;28;20428;-76
2022/06/20 09:11:34;;;;;;;0.98;0.85;;;;;;;18.65;66.66;101578.13;5006928;28;20033;-76
2022/06/20 09:14:26;;;;;;;2.58;1.30;;;;;;;18.54;66.85;101583.34;5011579;28;20561;-74
2022/06/20 09:17:00;;;;;;;1.48;0.95;;;;;;;18.51;66.71;101573.69;5003094;28;20045;-76
2022/06/20 09:20:00;;;;;;;1.23;0.75;;;;;;;18.61;62.42;101573.06;5011132;28;20099;-76
2022/06/20 09:22:33;;;;;;;1.73;0.80;;;;;;;18.69;65.77;101578.78;5009435;28;20134;-76
2022/06/20 09:25:23;;;;;;;2.15;1.00;;;;;;;18.78;61.67;101577.28;5009498;28;20130;-76
2022/06/20 09:28:15;;;;;;;4.00;1.83;;;;;;;18.86;63.97;101572.25;5009675;28;20046;-76
2022/06/20 09:30:46;;;;;;;3.45;0.93;;;;;;;19.06;64.57;101565.50;5009686;28;20049;-76
2022/06/20 09:33:14;;;;;;;3.10;1.25;;;;;;;19.00;64.46;101563.22;5005565;28;20038;-76
2022/06/20 09:36:08;;;;;;;1.98;1.00;;;;;;;19.07;62.74;101575.25;5009509;28;20063;-75
2022/06/20 09:38:43;;;;;;;6.18;1.25;;;;;;;19.01;63.47;101570.28;5008813;28;20095;-77
2022/06/20 09:41:46;;;;;;;3.70;1.23;;;;;;;18.87;62.76;101584.69;5008906;28;20385;-77
2022/06/20 09:44:21;;;;;;;;;;;;;;;18.64;62.09;101587.13;4998129;28;20145;-77
2022/06/20 09:46:57;;;;;;;3.03;1.10;;;;;;;18.72;63.30;101586.59;5023854;28;20589;-75
2022/06/20 09:49:41;;;;;;;3.55;1.27;;;;;;;18.99;62.81;101573.09;5005972;28;20038;-78
2022/06/20 09:52:35;;;;;;;3.80;1.38;;;;;;;19.26;61.05;101588.25;4992602;28;20284;-83
2022/06/20 09:55:28;;;;;;;5.88;1.85;;;;;;;19.32;61.64;101584.28;5021993;28;20037;-79
2022/06/20 09:58:13;;;;;;;4.10;1.20;;;;;;;19.20;61.43;101587.81;5010162;28;20127;-79
2022/06/20 10:01:47;;;;;;;1.48;1.20;;;;;;;19.03;60.80;101581.81;5022875;28;20037;-79
2022/06/20 10:04:24;;;;;;;3.10;1.20;;;;;;;19.20;61.60;101585.13;4961508;28;20049;-79
2022/06/20 10:06:58;;;;;;;2.72;1.70;;;;;;;19.11;61.39;101583.94;5024661;28;20143;-80
2022/06/20 10:09:30;;;;;;;3.53;1.52;;;;;;;18.81;62.19;101585.97;5010186;28;20063;-82
2022/06/20 10:11:58;;;;;;;2.65;1.30;;;;;;;18.57;62.87;101594.72;5025791;28;21490;-81
2022/06/20 10:14:24;;;;;;;1.58;1.20;;;;;;;18.62;63.40;101594.41;5006907;28;20083;-84
2022/06/20 10:17:08;;;;;;;3.72;1.30;;;;;;;18.86;62.78;101601.75;5005370;28;20140;-80
2022/06/20 10:19:44;;;;;;;1.83;1.10;;;;;;;18.77;62.56;101597.88;5024718;28;20041;-81
2022/06/20 10:22:25;;;;;;;3.83;1.33;;;;;;;18.51;61.51;101600.50;5005487;28;20034;-84
2022/06/20 10:25:16;;;;;;;4.43;1.50;;;;;;;18.51;62.78;101592.44;4990811;28;20132;-81
2022/06/20 10:27:49;;;;;;;2.03;0.93;;;;;;;18.57;62.18;101600.09;5006462;28;20037;-79
2022/06/20 10:30:18;;;;;;;1.77;1.10;;;;;;;18.50;62.93;101617.53;5021244;28;20044;-79
2022/06/20 10:32:52;;;;;;;4.43;1.35;;;;;;;18.42;63.28;101617.22;4978365;28;20400;-81
2022/06/20 10:35:41;;;;;;;1.88;1.10;;;;;;;18.45;63.17;101603.59;5023342;28;20131;-83
2022/06/20 10:38:23;;;;;;;1.40;1.13;;;;;;;18.49;62.61;101618.50;5004212;28;20623;-80
2022/06/20 10:40:59;;;;;;;4.40;1.40;;;;;;;18.40;61.74;101619.97;5025729;28;20570;-83
2022/06/20 10:43:32;;;;;;;1.33;1.10;;;;;;;18.25;61.72;101621.00;5009593;28;20040;-85
2022/06/20 10:46:00;;;;;;;;;;;;;;;18.22;63.05;101631.91;5012103;28;20511;-85
2022/06/20 10:48:54;;;;;;;2.05;1.10;;;;;;;18.46;63.06;101624.06;5010414;28;19925;-81
2022/06/20 10:51:51;;;;;;;1.63;1.13;;;;;;;18.65;61.32;101623.72;5026477;28;20132;-82
2022/06/20 10:54:50;;;;;;;1.65;1.08;;;;;;;18.64;62.27;101637.22;4995298;28;20072;-82
2022/06/20 10:57:34;;;;;;;3.67;1.00;;;;;;;18.76;60.40;101640.88;5009224;28;20151;-84
2022/06/20 11:00:05;;;;;;;2.70;1.20;;;;;;;18.70;60.79;101636.81;4995154;28;21582;-81
2022/06/20 11:02:34;;;;;;;1.85;1.10;;;;;;;18.75;61.40;101637.34;4998118;28;20128;-81
2022/06/20 11:05:14;;;;;;;1.85;1.20;;;;;;;18.87;60.95;101641.84;5011016;28;20139;-81
2022/06/20 11:07:52;;;;;;;1.85;1.05;;;;;;;18.91;58.78;101652.41;4994000;28;20068;-82
2022/06/20 11:10:38;;;;;;;2.40;1.15;;;;;;;19.04;57.57;101644.38;5011658;28;20799;-84
2022/06/20 11:13:19;;;;;;;1.20;1.10;;;;;;;19.24;58.93;101643.00;5010521;28;20037;-83
2022/06/20 11:16:11;;;;;;;1.17;1.00;;;;;;;19.35;58.90;101659.22;5011341;28;20038;-82
2022/06/20 11:18:42;;;;;;;4.10;1.37;;;;;;;19.23;59.88;101668.16;5006908;28;20049;-75
2022/06/20 11:21:40;;;;;;;3.80;1.50;;;;;;;19.00;60.31;101670.53;5024655;28;20033;-78
2022/06/20 11:24:21;;;;;;;2.90;1.15;;;;;;;18.71;60.92;101668.00;4995948;28;20550;-77
2022/06/20 11:27:07;;;;;;;1.15;1.05;;;;;;;18.49;61.45;101666.78;5008190;28;20044;-75
2022/06/20 11:29:49;;;;;;;2.85;1.15;;;;;;;18.32;62.12;101675.91;5009484;28;20110;-75
2022/06/20 11:32:53;;;;;;;1.85;1.20;;;;;;;18.24;62.41;101665.69;4991199;28;20042;-77
2022/06/20 11:35:30;;;;;;;3.17;1.10;;;;;;;18.16;62.58;101662.66;5010121;28;20045;-75
2022/06/20 11:38:13;;;;;;;3.00;1.30;;;;;;;18.17;62.45;101670.59;5009605;28;20073;-77
2022/06/20 11:40:58;;;;;;;2.03;1.10;;;;;;;17.97;62.98;101674.53;5011685;28;21446;-77
2022/06/20 11:43:33;;;;;;;1.83;0.90;;;;;;;17.89;63.32;101679.50;5027412;28;20396;-78
2022/06/20 11:46:27;;;;;;;5.40;1.13;;;;;;;17.82;63.51;101675.50;5012560;28;20045;-75
2022/06/20 11:49:34;;;;;;;1.38;0.80;;;;;;;17.90;63.00;101678.53;4995396;28;20030;-75
2022/06/20 11:52:18;;;;;;;2.72;1.08;;;;;;;17.81;62.35;101690.69;5005758;28;20401;-75
2022/06/20 11:54:55;;;;;;;2.65;0.90;;;;;;;17.73;63.19;101684.97;5012668;28;20046;-77
2022/06/20 11:57:47;;;;;;;1.60;1.20;;;;;;;17.69;63.07;101684.28;5012383;28;20437;-76
2022/06/20 12:00:19;;;;;;;1.10;1.00;;;;;;;17.78;63.46;101688.22;5015933;28;20393;-75
2022/06/20 12:03:07;;;;;;;2.80;1.17;;;;;;;17.95;63.00;101689.84;4983005;28;20083;-76
2022/06/20 12:05:41;;;;;;;2.25;1.00;;;;;;;18.19;62.22;101691.91;5012078;28;20726;-75
2022/06/20 12:08:29;;;;;;;2.53;1.60;;;;;;;18.35;61.44;101699.00;5010459;28;20037;-75
2022/06/20 12:11:31;;;;;;;2.60;1.08;;;;;;;18.20;61.84;101696.34;5010602;28;20048;-76